createdAt,value
2022-08-03T00:00:39.124Z,19.24
2022-08-03T00:01:34.198Z,19.22
2022-08-03T00:02:29.279Z,19.22
2022-08-03T00:03:24.431Z,19.21
2022-08-03T00:04:19.550Z,19.19
2022-08-03T00:05:14.615Z,19.18
2022-08-03T00:06:09.596Z,19.16
2022-08-03T00:07:04.686Z,19.16
2022-08-03T00:07:59.895Z,19.17
2022-08-03T00:08:54.996Z,19.17
2022-08-03T00:09:50.217Z,19.19
2022-08-03T00:10:45.295Z,19.20
2022-08-03T00:11:40.538Z,19.21
2022-08-03T00:12:35.783Z,19.20
2022-08-03T00:13:31.729Z,19.17
2022-08-03T00:14:27.101Z,19.16
2022-08-03T00:15:22.345Z,19.11
2022-08-03T00:16:18.662Z,19.08
2022-08-03T00:17:13.880Z,19.04
2022-08-03T00:18:09.704Z,19.02
2022-08-03T00:19:04.905Z,19.00
2022-08-03T00:20:00.204Z,19.00
2022-08-03T00:20:55.887Z,18.99
2022-08-03T00:21:51.123Z,19.01
2022-08-03T00:22:46.914Z,19.02
2022-08-03T00:23:51.216Z,19.02
2022-08-03T00:24:38.451Z,19.02
2022-08-03T00:25:33.051Z,19.02
2022-08-03T00:26:28.299Z,19.02
2022-08-03T00:27:23.403Z,19.01
2022-08-03T00:28:19.866Z,19.00
2022-08-03T00:29:15.164Z,18.98
2022-08-03T00:30:10.943Z,18.97
2022-08-03T00:31:06.149Z,19.00
2022-08-03T00:32:01.269Z,19.01
2022-08-03T00:32:57.856Z,19.00
2022-08-03T00:33:59.289Z,19.00
2022-08-03T00:34:59.089Z,18.95
2022-08-03T00:35:50.259Z,18.91
2022-08-03T00:36:41.949Z,18.86
2022-08-03T00:37:40.581Z,18.79
2022-08-03T00:38:33.104Z,18.75
2022-08-03T00:39:27.138Z,18.73
2022-08-03T00:40:22.258Z,18.71
2022-08-03T00:41:19.258Z,18.72
2022-08-03T00:42:14.542Z,18.73
2022-08-03T00:43:09.656Z,18.73
2022-08-03T00:44:06.152Z,18.72
2022-08-03T00:45:01.393Z,18.72
2022-08-03T00:45:57.253Z,18.74
2022-08-03T00:46:52.439Z,18.77
2022-08-03T00:47:47.706Z,18.79
2022-08-03T00:48:43.381Z,18.77
2022-08-03T00:49:38.696Z,18.76
2022-08-03T00:50:34.410Z,18.76
2022-08-03T00:51:29.758Z,18.73
2022-08-03T00:52:25.025Z,18.69
2022-08-03T00:53:20.686Z,18.63
2022-08-03T00:54:15.925Z,18.61
2022-08-03T00:55:11.024Z,18.59
2022-08-03T00:56:07.492Z,18.58
2022-08-03T00:57:02.775Z,18.60
2022-08-03T00:57:58.553Z,18.64
2022-08-03T00:58:53.765Z,18.69
2022-08-03T00:59:48.889Z,18.72
2022-08-03T01:00:44.675Z,18.72
2022-08-03T01:01:39.898Z,18.70
2022-08-03T01:02:35.596Z,18.70
2022-08-03T01:03:30.806Z,18.69
2022-08-03T01:04:26.060Z,18.67
2022-08-03T01:05:21.853Z,18.61
2022-08-03T01:06:16.986Z,18.60
2022-08-03T01:07:12.231Z,18.58
2022-08-03T01:08:08.441Z,18.53
2022-08-03T01:09:03.661Z,18.50
2022-08-03T01:09:59.451Z,18.49
2022-08-03T01:10:54.544Z,18.49
2022-08-03T01:12:01.079Z,18.49
2022-08-03T01:12:46.549Z,18.48
2022-08-03T01:14:03.410Z,18.52
2022-08-03T01:14:37.518Z,18.48
2022-08-03T01:15:31.706Z,18.46
2022-08-03T01:16:36.018Z,18.43
2022-08-03T01:17:24.195Z,18.35
2022-08-03T01:18:18.370Z,18.31
2022-08-03T01:19:14.297Z,18.29
2022-08-03T01:20:09.396Z,18.28
2022-08-03T01:21:04.527Z,18.26
2022-08-03T01:22:00.367Z,18.22
2022-08-03T01:22:55.476Z,18.21
2022-08-03T01:23:51.414Z,18.23
2022-08-03T01:24:46.528Z,18.25
2022-08-03T01:25:41.900Z,18.25
2022-08-03T01:26:37.735Z,18.21
2022-08-03T01:27:33.011Z,18.19
2022-08-03T01:28:28.243Z,18.19
2022-08-03T01:29:24.604Z,18.19
2022-08-03T01:30:19.818Z,18.20
2022-08-03T01:31:15.187Z,18.19
2022-08-03T01:32:52.391Z,18.18
2022-08-03T01:33:07.917Z,18.16
2022-08-03T01:34:01.821Z,18.14
2022-08-03T01:34:56.964Z,18.15
2022-08-03T01:35:52.217Z,18.17
2022-08-03T01:36:48.547Z,18.17
2022-08-03T01:37:43.772Z,18.21
2022-08-03T01:38:38.918Z,18.24
2022-08-03T01:39:38.330Z,18.25
2022-08-03T01:40:33.590Z,18.24
2022-08-03T01:41:28.691Z,18.24
2022-08-03T01:42:23.812Z,18.24
2022-08-03T01:44:26.925Z,18.23
2022-08-03T01:44:29.986Z,18.19
2022-08-03T01:45:10.014Z,18.14
2022-08-03T01:46:04.150Z,18.09
2022-08-03T01:46:59.259Z,18.05
2022-08-03T01:47:54.492Z,18.06
2022-08-03T01:48:49.622Z,18.08
2022-08-03T01:49:44.899Z,18.11
2022-08-03T01:50:39.876Z,18.12
2022-08-03T01:52:02.820Z,18.11
2022-08-03T01:52:30.938Z,18.10
2022-08-03T01:53:24.957Z,18.11
2022-08-03T01:54:20.034Z,18.09
2022-08-03T01:55:15.039Z,18.08
2022-08-03T01:56:10.129Z,18.05
2022-08-03T01:57:05.108Z,18.01
2022-08-03T01:58:05.535Z,17.98
2022-08-03T01:58:56.338Z,17.92
2022-08-03T01:59:50.395Z,17.91
2022-08-03T02:00:45.719Z,17.91
2022-08-03T02:02:15.340Z,17.93
2022-08-03T02:02:40.972Z,17.92
2022-08-03T02:03:34.549Z,17.93
2022-08-03T02:04:29.570Z,17.94
2022-08-03T02:05:24.695Z,17.96
2022-08-03T02:07:01.968Z,17.98
2022-08-03T02:07:15.715Z,17.91
2022-08-03T02:08:09.782Z,17.90
2022-08-03T02:09:05.017Z,17.88
2022-08-03T02:10:00.267Z,17.89
2022-08-03T02:10:55.390Z,17.88
2022-08-03T02:11:51.851Z,17.87
2022-08-03T02:12:50.816Z,17.84
2022-08-03T02:13:42.881Z,17.81
2022-08-03T02:14:38.232Z,17.81
2022-08-03T02:15:33.230Z,17.82
2022-08-03T02:16:29.041Z,17.87
2022-08-03T02:17:40.136Z,17.87
2022-08-03T02:18:21.143Z,17.85
2022-08-03T02:19:15.160Z,17.83
2022-08-03T02:20:10.411Z,17.82
2022-08-03T02:21:11.088Z,17.78
2022-08-03T02:22:02.179Z,17.71
2022-08-03T02:22:57.518Z,17.65
2022-08-03T02:23:53.629Z,17.57
2022-08-03T02:24:51.190Z,17.52
2022-08-03T02:25:44.674Z,17.48
2022-08-03T02:26:39.908Z,17.46
2022-08-03T02:27:35.148Z,17.44
2022-08-03T02:28:30.826Z,17.44
2022-08-03T02:29:39.606Z,17.48
2022-08-03T02:30:22.936Z,17.53
2022-08-03T02:31:17.094Z,17.61
2022-08-03T02:32:12.337Z,17.69
2022-08-03T02:33:08.963Z,17.75
2022-08-03T02:34:04.139Z,17.82
2022-08-03T02:34:59.227Z,17.84
2022-08-03T02:35:55.769Z,17.85
2022-08-03T02:36:50.904Z,17.87
2022-08-03T02:37:49.541Z,17.88
2022-08-03T02:38:41.822Z,17.86
2022-08-03T02:39:36.964Z,17.84
2022-08-03T02:40:32.776Z,17.79
2022-08-03T02:41:27.946Z,17.77
2022-08-03T02:42:23.738Z,17.77
2022-08-03T02:43:18.934Z,17.78
2022-08-03T02:44:14.222Z,17.77
2022-08-03T02:45:10.023Z,17.78
2022-08-03T02:46:05.262Z,17.81
2022-08-03T02:47:00.341Z,17.80
2022-08-03T02:47:56.693Z,17.80
2022-08-03T02:48:51.992Z,17.78
2022-08-03T02:49:51.348Z,17.75
2022-08-03T02:50:42.856Z,17.74
2022-08-03T02:51:37.996Z,17.70
2022-08-03T02:52:33.817Z,17.64
2022-08-03T02:53:29.063Z,17.61
2022-08-03T02:54:25.006Z,17.60
2022-08-03T02:55:20.107Z,17.57
2022-08-03T02:56:15.522Z,17.57
2022-08-03T02:57:11.351Z,17.56
2022-08-03T02:58:06.593Z,17.53
2022-08-03T02:59:01.940Z,17.50
2022-08-03T02:59:57.028Z,17.46
2022-08-03T03:00:52.880Z,17.41
2022-08-03T03:01:47.967Z,17.39
2022-08-03T03:02:44.561Z,17.40
2022-08-03T03:03:40.040Z,17.41
2022-08-03T03:04:35.058Z,17.41
2022-08-03T03:05:52.990Z,17.39
2022-08-03T03:06:26.056Z,17.37
2022-08-03T03:07:20.866Z,17.34
2022-08-03T03:08:18.682Z,17.34
2022-08-03T03:09:12.035Z,17.33
2022-08-03T03:10:07.171Z,17.30
2022-08-03T03:11:02.285Z,17.27
2022-08-03T03:11:58.095Z,17.26
2022-08-03T03:12:53.325Z,17.26
2022-08-03T03:13:48.673Z,17.24
2022-08-03T03:14:44.756Z,17.24
2022-08-03T03:15:40.031Z,17.32
2022-08-03T03:16:35.258Z,17.44
2022-08-03T03:17:30.367Z,17.53
2022-08-03T03:18:28.044Z,17.54
2022-08-03T03:19:23.268Z,17.53
2022-08-03T03:20:26.739Z,17.55
2022-08-03T03:21:14.546Z,17.52
2022-08-03T03:22:08.744Z,17.49
2022-08-03T03:23:04.530Z,17.48
2022-08-03T03:23:59.640Z,17.46
2022-08-03T03:24:54.924Z,17.44
2022-08-03T03:25:50.022Z,17.47
2022-08-03T03:26:45.142Z,17.47
2022-08-03T03:27:40.354Z,17.49
2022-08-03T03:28:36.270Z,17.44
2022-08-03T03:29:31.390Z,17.42
2022-08-03T03:30:27.592Z,17.38
2022-08-03T03:31:21.732Z,17.40
2022-08-03T03:32:17.267Z,17.38
2022-08-03T03:33:12.117Z,17.36
2022-08-03T03:34:08.873Z,17.36
2022-08-03T03:35:04.114Z,17.33
2022-08-03T03:35:59.296Z,17.28
2022-08-03T03:36:58.629Z,17.26
2022-08-03T03:37:53.664Z,17.17
2022-08-03T03:38:48.847Z,17.14
2022-08-03T03:39:44.015Z,17.14
2022-08-03T03:40:39.307Z,17.15
2022-08-03T03:41:34.619Z,17.17
2022-08-03T03:42:29.732Z,17.18
2022-08-03T03:43:25.001Z,17.21
2022-08-03T03:44:20.035Z,17.21
2022-08-03T03:45:15.039Z,17.21
2022-08-03T03:46:10.043Z,17.19
2022-08-03T03:47:09.666Z,17.20
2022-08-03T03:48:04.691Z,17.18
2022-08-03T03:49:00.017Z,17.18
2022-08-03T03:49:55.177Z,17.16
2022-08-03T03:50:50.465Z,17.17
2022-08-03T03:51:45.749Z,17.17
2022-08-03T03:52:40.959Z,17.18
2022-08-03T03:53:36.319Z,17.21
2022-08-03T03:54:31.395Z,17.21
2022-08-03T03:55:26.613Z,17.19
2022-08-03T03:56:21.802Z,17.18
2022-08-03T03:57:17.162Z,17.14
2022-08-03T03:58:12.258Z,17.12
2022-08-03T03:59:07.520Z,17.12
2022-08-03T04:00:02.824Z,17.13
2022-08-03T04:00:58.282Z,17.13
2022-08-03T04:01:58.877Z,17.13
2022-08-03T04:02:49.881Z,17.11
2022-08-03T04:03:44.191Z,17.10
2022-08-03T04:04:39.487Z,17.08
2022-08-03T04:05:34.600Z,17.03
2022-08-03T04:06:29.584Z,17.02
2022-08-03T04:07:24.592Z,17.01
2022-08-03T04:08:19.727Z,17.00
2022-08-03T04:09:14.746Z,16.99
2022-08-03T04:10:14.570Z,17.01
2022-08-03T04:11:06.568Z,17.03
2022-08-03T04:12:00.857Z,17.08
2022-08-03T04:12:56.106Z,17.12
2022-08-03T04:13:51.429Z,17.15
2022-08-03T04:14:46.696Z,17.18
2022-08-03T04:15:42.093Z,17.18
2022-08-03T04:16:40.772Z,17.17
2022-08-03T04:17:33.240Z,17.14
2022-08-03T04:18:27.294Z,17.18
2022-08-03T04:19:23.436Z,17.14
2022-08-03T04:20:17.851Z,17.14
2022-08-03T04:21:12.991Z,17.17
2022-08-03T04:22:07.981Z,17.20
2022-08-03T04:23:03.020Z,17.21
2022-08-03T04:23:59.055Z,17.22
2022-08-03T04:24:53.116Z,17.23
2022-08-03T04:25:48.224Z,17.24
2022-08-03T04:26:43.227Z,17.20
2022-08-03T04:27:38.258Z,17.19
2022-08-03T04:28:33.249Z,17.19
2022-08-03T04:29:28.314Z,17.19
2022-08-03T04:30:23.288Z,17.20
2022-08-03T04:31:18.315Z,17.21
2022-08-03T04:32:13.429Z,17.23
2022-08-03T04:33:08.376Z,17.23
2022-08-03T04:34:03.402Z,17.24
2022-08-03T04:34:58.630Z,17.26
2022-08-03T04:35:58.601Z,17.29
2022-08-03T04:36:50.293Z,17.26
2022-08-03T04:37:46.013Z,17.22
2022-08-03T04:38:41.309Z,17.20
2022-08-03T04:39:36.672Z,17.18
2022-08-03T04:40:31.963Z,17.16
2022-08-03T04:41:27.271Z,17.15
2022-08-03T04:42:25.849Z,17.18
2022-08-03T04:43:21.168Z,17.20
2022-08-03T04:44:16.499Z,17.23
2022-08-03T04:45:11.841Z,17.26
2022-08-03T04:46:07.148Z,17.27
2022-08-03T04:47:02.438Z,17.29
2022-08-03T04:47:57.777Z,17.29
2022-08-03T04:48:53.126Z,17.32
2022-08-03T04:49:48.558Z,17.34
2022-08-03T04:50:43.763Z,17.37
2022-08-03T04:51:39.057Z,17.37
2022-08-03T04:52:34.409Z,17.39
2022-08-03T04:53:29.758Z,17.43
2022-08-03T04:54:25.064Z,17.43
2022-08-03T04:55:20.381Z,17.44
2022-08-03T04:56:15.694Z,17.40
2022-08-03T04:57:11.018Z,17.39
2022-08-03T04:58:07.376Z,17.35
2022-08-03T04:59:01.737Z,17.33
2022-08-03T05:00:02.542Z,17.33
2022-08-03T05:00:53.354Z,17.32
2022-08-03T05:01:47.868Z,17.32
2022-08-03T05:02:43.065Z,17.32
2022-08-03T05:03:38.360Z,17.32
2022-08-03T05:04:33.704Z,17.31
2022-08-03T05:05:50.137Z,17.30
2022-08-03T05:06:26.836Z,17.32
2022-08-03T05:07:25.049Z,17.41
2022-08-03T05:08:16.570Z,17.46
2022-08-03T05:09:11.909Z,17.50
2022-08-03T05:10:15.094Z,17.55
2022-08-03T05:11:04.144Z,17.57
2022-08-03T05:11:58.539Z,17.60
2022-08-03T05:12:53.878Z,17.61
2022-08-03T05:13:49.319Z,17.61
2022-08-03T05:14:44.531Z,17.59
2022-08-03T05:15:42.711Z,17.58
2022-08-03T05:16:34.673Z,17.58
2022-08-03T05:17:29.767Z,17.64
2022-08-03T05:18:25.125Z,17.67
2022-08-03T05:19:20.134Z,17.73
2022-08-03T05:20:18.777Z,17.81
2022-08-03T05:21:10.263Z,17.88
2022-08-03T05:22:06.155Z,17.91
2022-08-03T05:23:01.646Z,17.95
2022-08-03T05:23:56.914Z,17.96
2022-08-03T05:24:52.267Z,18.00
2022-08-03T05:25:49.684Z,18.04
2022-08-03T05:26:43.417Z,18.10
2022-08-03T05:27:38.766Z,18.14
2022-08-03T05:28:34.167Z,18.15
2022-08-03T05:29:29.517Z,18.18
2022-08-03T05:30:30.467Z,18.21
2022-08-03T05:31:21.298Z,18.23
2022-08-03T05:32:16.148Z,18.25
2022-08-03T05:33:11.535Z,18.29
2022-08-03T05:34:06.902Z,18.35
2022-08-03T05:36:00.746Z,18.39
2022-08-03T05:36:03.476Z,18.40
2022-08-03T05:36:52.994Z,18.43
2022-08-03T05:37:54.831Z,18.46
2022-08-03T05:38:43.136Z,18.47
2022-08-03T05:39:37.173Z,18.51
2022-08-03T05:40:32.274Z,18.55
2022-08-03T05:41:36.825Z,18.57
2022-08-03T05:42:26.362Z,18.55
2022-08-03T05:43:20.710Z,18.57
2022-08-03T05:44:16.111Z,18.61
2022-08-03T05:45:11.772Z,18.63
2022-08-03T05:46:12.849Z,18.68
2022-08-03T05:47:03.538Z,18.66
2022-08-03T05:47:57.955Z,18.67
2022-08-03T05:48:53.462Z,18.67
2022-08-03T05:49:48.746Z,18.72
2022-08-03T05:50:44.111Z,18.79
2022-08-03T05:51:39.627Z,18.85
2022-08-03T05:52:34.860Z,18.91
2022-08-03T05:53:30.306Z,18.97
2022-08-03T05:54:25.679Z,19.03
2022-08-03T05:55:21.765Z,19.06
2022-08-03T05:56:16.820Z,19.11
2022-08-03T05:57:10.889Z,19.19
2022-08-03T05:58:05.973Z,19.27
2022-08-03T05:59:16.302Z,19.35
2022-08-03T05:59:58.672Z,19.44
2022-08-03T06:00:51.180Z,19.51
2022-08-03T06:01:46.335Z,19.58
2022-08-03T06:02:41.270Z,19.65
2022-08-03T06:03:36.387Z,19.72
2022-08-03T06:04:33.647Z,19.77
2022-08-03T06:05:29.146Z,19.79
2022-08-03T06:06:24.419Z,19.82
2022-08-03T06:07:19.807Z,19.88
2022-08-03T06:08:15.517Z,19.95
2022-08-03T06:09:10.249Z,20.00
2022-08-03T06:10:35.912Z,20.05
2022-08-03T06:11:01.466Z,20.11
2022-08-03T06:11:55.496Z,20.15
2022-08-03T06:12:50.464Z,20.22
2022-08-03T06:13:45.563Z,20.28
2022-08-03T06:14:40.685Z,20.31
2022-08-03T06:15:35.775Z,20.36
2022-08-03T06:16:30.895Z,20.45
2022-08-03T06:17:25.877Z,20.51
2022-08-03T06:18:20.872Z,20.56
2022-08-03T06:19:16.074Z,20.64
2022-08-03T06:20:11.323Z,20.73
2022-08-03T06:21:15.431Z,20.80
2022-08-03T06:22:03.104Z,20.86
2022-08-03T06:23:00.446Z,20.94
2022-08-03T06:23:55.510Z,21.03
2022-08-03T06:24:53.570Z,21.08
2022-08-03T06:25:44.741Z,21.12
2022-08-03T06:26:39.149Z,21.18
2022-08-03T06:27:36.524Z,21.18
2022-08-03T06:28:52.503Z,21.22
2022-08-03T06:29:26.359Z,21.25
2022-08-03T06:30:21.391Z,21.31
2022-08-03T06:31:16.373Z,21.41
2022-08-03T06:32:11.471Z,21.51
2022-08-03T06:33:08.208Z,21.63
2022-08-03T06:34:35.219Z,21.70
2022-08-03T06:34:58.606Z,21.78
2022-08-03T06:35:53.045Z,21.88
2022-08-03T06:36:48.432Z,21.92
2022-08-03T06:37:43.908Z,21.93
2022-08-03T06:38:39.151Z,21.96
2022-08-03T06:39:34.511Z,22.03
2022-08-03T06:40:29.618Z,22.05
2022-08-03T06:41:24.725Z,22.12
2022-08-03T06:42:20.619Z,22.11
2022-08-03T06:43:16.647Z,22.14
2022-08-03T06:44:11.738Z,22.17
2022-08-03T06:45:06.815Z,22.25
2022-08-03T06:46:01.932Z,22.35
2022-08-03T06:46:57.030Z,22.46
2022-08-03T06:47:52.105Z,22.58
2022-08-03T06:48:47.109Z,22.67
2022-08-03T06:49:42.292Z,22.79
2022-08-03T06:50:37.201Z,22.88
2022-08-03T06:52:04.853Z,23.00
2022-08-03T06:52:38.047Z,23.08
2022-08-03T06:53:23.393Z,23.16
2022-08-03T06:54:17.653Z,23.26
2022-08-03T06:55:13.025Z,23.36
2022-08-03T06:56:08.556Z,23.43
2022-08-03T06:57:03.813Z,23.52
2022-08-03T06:57:59.828Z,23.67
2022-08-03T06:58:54.552Z,23.81
2022-08-03T07:00:07.971Z,23.96
2022-08-03T07:00:46.311Z,24.08
2022-08-03T07:01:40.827Z,24.17
2022-08-03T07:02:36.201Z,24.10
2022-08-03T07:03:31.546Z,23.96
2022-08-03T07:04:26.910Z,23.90
2022-08-03T07:05:22.288Z,23.86
2022-08-03T07:06:17.678Z,23.93
2022-08-03T07:07:13.050Z,24.04
2022-08-03T07:08:08.554Z,24.13
2022-08-03T07:09:03.797Z,24.23
2022-08-03T07:09:59.150Z,24.30
2022-08-03T07:10:54.569Z,24.33
2022-08-03T07:11:50.018Z,24.37
2022-08-03T07:12:56.220Z,24.45
2022-08-03T07:13:41.749Z,24.54
2022-08-03T07:14:36.151Z,24.63
2022-08-03T07:15:55.449Z,24.67
2022-08-03T07:16:29.053Z,24.74
2022-08-03T07:17:23.463Z,24.94
2022-08-03T07:18:29.253Z,25.16
2022-08-03T07:19:15.212Z,25.35
2022-08-03T07:20:09.756Z,25.51
2022-08-03T07:21:05.198Z,25.71
2022-08-03T07:22:02.126Z,25.81
2022-08-03T07:22:56.104Z,25.84
2022-08-03T07:23:51.393Z,25.78
2022-08-03T07:24:46.818Z,25.76
2022-08-03T07:25:42.272Z,25.89
2022-08-03T07:26:37.735Z,25.99
2022-08-03T07:27:33.146Z,26.11
2022-08-03T07:28:28.582Z,26.08
2022-08-03T07:29:23.608Z,26.03
2022-08-03T07:30:18.621Z,26.08
2022-08-03T07:31:13.816Z,26.15
2022-08-03T07:32:08.846Z,26.18
2022-08-03T07:33:04.025Z,26.19
2022-08-03T07:33:59.043Z,26.20
2022-08-03T07:34:58.430Z,26.26
2022-08-03T07:35:52.793Z,26.37
2022-08-03T07:36:46.856Z,26.42
2022-08-03T07:37:41.969Z,26.45
2022-08-03T07:38:37.974Z,26.43
2022-08-03T07:39:33.088Z,26.43
2022-08-03T07:40:31.565Z,26.44
2022-08-03T07:41:24.092Z,26.40
2022-08-03T07:42:19.614Z,26.48
2022-08-03T07:43:15.128Z,26.57
2022-08-03T07:44:10.681Z,26.63
2022-08-03T07:45:06.086Z,26.75
2022-08-03T07:46:01.733Z,26.86
2022-08-03T07:46:57.036Z,26.77
2022-08-03T07:47:53.697Z,26.71
2022-08-03T07:48:47.951Z,26.75
2022-08-03T07:49:43.521Z,26.86
2022-08-03T07:50:39.031Z,27.02
2022-08-03T07:51:34.596Z,27.19
2022-08-03T07:52:29.562Z,27.29
2022-08-03T07:53:24.669Z,27.42
2022-08-03T07:54:19.661Z,27.54
2022-08-03T07:55:14.742Z,27.60
2022-08-03T07:56:11.470Z,27.58
2022-08-03T07:57:04.925Z,27.53
2022-08-03T07:58:00.031Z,27.38
2022-08-03T07:58:55.692Z,27.27
2022-08-03T07:59:58.677Z,27.26
2022-08-03T08:00:46.928Z,27.41
2022-08-03T08:01:41.044Z,27.59
2022-08-03T08:02:36.957Z,27.71
2022-08-03T08:03:41.970Z,27.85
2022-08-03T08:04:28.874Z,27.99
2022-08-03T08:05:23.339Z,28.07
2022-08-03T08:06:18.846Z,28.14
2022-08-03T08:07:14.249Z,28.27
2022-08-03T08:08:09.705Z,28.25
2022-08-03T08:09:05.237Z,28.13
2022-08-03T08:10:00.758Z,28.04
2022-08-03T08:10:56.888Z,27.77
2022-08-03T08:11:51.925Z,27.57
2022-08-03T08:12:47.302Z,27.66
2022-08-03T08:13:42.391Z,27.76
2022-08-03T08:14:37.667Z,27.96
2022-08-03T08:15:32.573Z,28.18
2022-08-03T08:16:27.589Z,28.29
2022-08-03T08:17:22.595Z,28.43
2022-08-03T08:18:17.598Z,28.39
2022-08-03T08:19:12.836Z,28.40
2022-08-03T08:20:07.704Z,28.46
2022-08-03T08:21:02.736Z,28.49
2022-08-03T08:22:02.344Z,28.37
2022-08-03T08:22:56.247Z,28.38
2022-08-03T08:23:54.984Z,28.22
2022-08-03T08:24:47.386Z,27.99
2022-08-03T08:25:42.534Z,27.75
2022-08-03T08:26:38.065Z,27.92
2022-08-03T08:28:31.805Z,27.93
2022-08-03T08:28:33.501Z,27.80
2022-08-03T08:29:24.616Z,27.71
2022-08-03T08:30:20.296Z,27.90
2022-08-03T08:31:15.050Z,28.09
2022-08-03T08:32:10.051Z,28.14
2022-08-03T08:33:05.074Z,28.38
2022-08-03T08:34:04.310Z,28.64
2022-08-03T08:34:55.146Z,28.85
2022-08-03T08:35:50.295Z,28.81
2022-08-03T08:36:45.247Z,28.73
2022-08-03T08:37:41.048Z,28.69
2022-08-03T08:38:36.600Z,28.79
2022-08-03T08:39:32.153Z,28.89
2022-08-03T08:40:27.685Z,28.90
2022-08-03T08:41:23.332Z,29.01
2022-08-03T08:42:18.898Z,29.12
2022-08-03T08:43:14.169Z,29.20
2022-08-03T08:44:09.570Z,28.98
2022-08-03T08:45:05.123Z,28.90
2022-08-03T08:46:00.579Z,29.07
2022-08-03T08:46:55.974Z,29.28
2022-08-03T08:47:53.260Z,29.48
2022-08-03T08:48:47.280Z,29.63
2022-08-03T08:49:58.221Z,29.81
2022-08-03T08:50:39.174Z,29.92
2022-08-03T08:52:00.434Z,30.01
2022-08-03T08:52:31.869Z,30.01
2022-08-03T08:53:27.233Z,30.04
2022-08-03T08:54:21.121Z,30.11
2022-08-03T08:55:16.505Z,30.06
2022-08-03T08:56:11.939Z,30.06
2022-08-03T08:57:21.334Z,30.03
2022-08-03T08:58:04.006Z,29.90
2022-08-03T08:58:58.467Z,29.83
2022-08-03T08:59:57.265Z,29.67
2022-08-03T09:00:49.589Z,29.59
2022-08-03T09:01:44.967Z,29.48
2022-08-03T09:02:40.368Z,29.59
2022-08-03T09:03:35.655Z,29.48
2022-08-03T09:04:31.158Z,29.63
2022-08-03T09:05:47.389Z,29.72
2022-08-03T09:06:23.102Z,29.53
2022-08-03T09:07:21.436Z,29.30
2022-08-03T09:08:16.835Z,29.36
2022-08-03T09:10:00.293Z,29.41
2022-08-03T09:10:12.842Z,29.30
2022-08-03T09:11:03.298Z,29.40
2022-08-03T09:12:20.843Z,29.51
2022-08-03T09:12:55.069Z,29.58
2022-08-03T09:13:49.424Z,29.56
2022-08-03T09:15:00.758Z,29.50
2022-08-03T09:15:41.471Z,29.29
2022-08-03T09:16:37.287Z,29.35
2022-08-03T09:17:31.870Z,29.53
2022-08-03T09:18:27.255Z,29.61
2022-08-03T09:19:24.077Z,29.76
2022-08-03T09:20:18.556Z,29.96
2022-08-03T09:21:30.013Z,30.09
2022-08-03T09:22:10.583Z,30.31
2022-08-03T09:23:18.990Z,30.13
2022-08-03T09:24:03.370Z,29.86
2022-08-03T09:25:21.601Z,29.64
2022-08-03T09:25:51.495Z,29.64
2022-08-03T09:26:45.534Z,29.75
2022-08-03T09:27:40.623Z,29.86
2022-08-03T09:29:01.603Z,29.91
2022-08-03T09:29:31.864Z,30.00
2022-08-03T09:30:34.177Z,30.06
2022-08-03T09:31:22.731Z,30.23
2022-08-03T09:32:17.289Z,30.44
2022-08-03T09:33:12.827Z,30.53
2022-08-03T09:34:08.366Z,30.63
2022-08-03T09:35:03.895Z,30.83
2022-08-03T09:35:59.442Z,30.98
2022-08-03T09:36:55.945Z,31.03
2022-08-03T09:38:12.702Z,31.02
2022-08-03T09:38:46.920Z,30.95
2022-08-03T09:39:42.399Z,30.85
2022-08-03T09:40:36.512Z,30.68
2022-08-03T09:41:31.555Z,30.67
2022-08-03T09:42:26.568Z,30.50
2022-08-03T09:43:23.139Z,30.40
2022-08-03T09:44:25.394Z,30.40
2022-08-03T09:45:14.222Z,30.43
2022-08-03T09:46:08.293Z,30.67
2022-08-03T09:47:04.731Z,30.75
2022-08-03T09:48:00.010Z,30.86
2022-08-03T09:48:55.599Z,31.04
2022-08-03T09:49:50.999Z,31.22
2022-08-03T09:50:58.465Z,31.34
2022-08-03T09:52:38.179Z,31.35
2022-08-03T09:52:50.209Z,31.27
2022-08-03T09:53:34.195Z,31.26
2022-08-03T09:54:28.633Z,31.08
2022-08-03T09:56:33.400Z,31.17
2022-08-03T09:56:36.435Z,31.12
2022-08-03T09:57:16.746Z,31.13
2022-08-03T09:58:11.120Z,31.40
2022-08-03T09:59:06.499Z,31.60
2022-08-03T10:00:07.735Z,31.71
2022-08-03T10:00:57.934Z,31.68
2022-08-03T10:01:51.918Z,31.57
2022-08-03T10:02:46.914Z,31.64
2022-08-03T10:04:04.431Z,31.74
2022-08-03T10:04:38.005Z,31.88
2022-08-03T10:05:32.069Z,32.10
2022-08-03T10:06:29.165Z,32.03
2022-08-03T10:07:24.215Z,31.88
2022-08-03T10:08:19.777Z,31.92
2022-08-03T10:09:15.297Z,31.68
2022-08-03T10:10:31.765Z,31.50
2022-08-03T10:11:07.192Z,31.54
2022-08-03T10:12:01.657Z,31.83
2022-08-03T10:12:57.273Z,31.91
2022-08-03T10:13:52.588Z,31.79
2022-08-03T10:14:49.022Z,31.93
2022-08-03T10:16:24.078Z,32.08
2022-08-03T10:16:39.953Z,32.00
2022-08-03T10:17:40.064Z,32.03
2022-08-03T10:18:31.174Z,32.13
2022-08-03T10:19:25.556Z,32.11
2022-08-03T10:20:20.656Z,32.03
2022-08-03T10:21:15.680Z,31.87
2022-08-03T10:22:10.758Z,31.62
2022-08-03T10:23:05.787Z,31.54
2022-08-03T10:24:06.814Z,31.38
2022-08-03T10:25:02.283Z,31.41
2022-08-03T10:25:57.605Z,31.60
2022-08-03T10:26:53.667Z,31.78
2022-08-03T10:27:48.985Z,31.92
2022-08-03T10:28:45.521Z,32.01
2022-08-03T10:29:40.815Z,31.76
2022-08-03T10:30:36.284Z,31.60
2022-08-03T10:31:32.172Z,31.59
2022-08-03T10:32:27.635Z,31.74
2022-08-03T10:33:50.007Z,31.99
2022-08-03T10:34:20.073Z,32.30
2022-08-03T10:35:20.389Z,32.57
2022-08-03T10:36:11.413Z,32.87
2022-08-03T10:37:05.801Z,33.11
2022-08-03T10:38:01.258Z,33.21
2022-08-03T10:38:57.644Z,33.10
2022-08-03T10:39:52.977Z,33.03
2022-08-03T10:40:50.390Z,33.10
2022-08-03T10:41:44.763Z,33.04
2022-08-03T10:42:40.483Z,32.97
2022-08-03T10:43:36.216Z,33.02
2022-08-03T10:44:31.704Z,32.60
2022-08-03T10:45:27.159Z,32.14
2022-08-03T10:46:22.904Z,32.03
2022-08-03T10:47:18.679Z,32.14
2022-08-03T10:48:14.663Z,32.37
2022-08-03T10:49:09.743Z,32.52
2022-08-03T10:50:05.350Z,32.48
2022-08-03T10:51:01.105Z,32.49
2022-08-03T10:51:56.534Z,32.56
2022-08-03T10:52:52.112Z,32.57
2022-08-03T10:53:54.614Z,32.55
2022-08-03T10:54:44.717Z,32.83
2022-08-03T10:55:39.475Z,32.96
2022-08-03T10:56:48.148Z,33.09
2022-08-03T10:57:31.769Z,33.32
2022-08-03T10:58:30.794Z,33.57
2022-08-03T10:59:22.973Z,33.79
2022-08-03T11:00:18.462Z,34.00
2022-08-03T11:01:12.942Z,33.74
2022-08-03T11:02:09.394Z,33.34
2022-08-03T11:03:04.968Z,33.24
2022-08-03T11:04:00.687Z,33.19
2022-08-03T11:04:56.158Z,32.93
2022-08-03T11:05:51.586Z,32.64
2022-08-03T11:06:47.448Z,32.67
2022-08-03T11:07:42.878Z,32.87
2022-08-03T11:08:38.328Z,33.06
2022-08-03T11:09:34.656Z,33.35
2022-08-03T11:10:30.229Z,33.55
2022-08-03T11:11:26.080Z,33.56
2022-08-03T11:12:21.674Z,33.61
2022-08-03T11:13:18.661Z,33.55
2022-08-03T11:14:13.175Z,33.61
2022-08-03T11:15:09.049Z,33.54
2022-08-03T11:16:07.101Z,33.51
2022-08-03T11:16:59.937Z,33.40
2022-08-03T11:17:55.994Z,33.40
2022-08-03T11:18:50.136Z,33.35
2022-08-03T11:19:57.400Z,33.30
2022-08-03T11:20:47.329Z,33.32
2022-08-03T11:21:42.367Z,33.23
2022-08-03T11:22:37.903Z,33.25
2022-08-03T11:24:05.492Z,33.47
2022-08-03T11:24:30.192Z,33.65
2022-08-03T11:25:53.815Z,33.67
2022-08-03T11:26:23.841Z,33.53
2022-08-03T11:27:19.247Z,33.59
2022-08-03T11:28:14.464Z,33.56
2022-08-03T11:29:10.279Z,33.55
2022-08-03T11:30:05.720Z,33.56
2022-08-03T11:31:01.191Z,33.71
2022-08-03T11:31:57.053Z,33.77
2022-08-03T11:32:52.711Z,33.66
2022-08-03T11:33:48.007Z,33.59
2022-08-03T11:34:44.570Z,33.55
2022-08-03T11:35:40.014Z,33.69
2022-08-03T11:36:35.816Z,33.49
2022-08-03T11:37:33.382Z,33.13
2022-08-03T11:38:26.642Z,32.91
2022-08-03T11:39:21.724Z,33.04
2022-08-03T11:40:16.769Z,33.30
2022-08-03T11:41:12.085Z,33.40
2022-08-03T11:42:06.820Z,33.39
2022-08-03T11:43:01.879Z,33.23
2022-08-03T11:43:57.042Z,33.40
2022-08-03T11:44:52.113Z,33.63
2022-08-03T11:45:47.127Z,33.88
2022-08-03T11:46:42.203Z,33.78
2022-08-03T11:47:37.238Z,33.52
2022-08-03T11:48:33.322Z,33.55
2022-08-03T11:49:27.426Z,33.76
2022-08-03T11:50:22.445Z,33.89
2022-08-03T11:51:17.494Z,33.89
2022-08-03T11:52:12.622Z,33.78
2022-08-03T11:53:07.566Z,33.78
2022-08-03T11:54:02.638Z,33.70